Time,TemperatureF,DewpointF,PressureIn,WindDirection,WindDirectionDegrees,WindSpeedMPH,WindSpeedGustMPH,Humidity,HourlyPrecipIn,Conditions,Clouds,dailyrainin,SolarRadiationWatts/m^2,SoftwareType,DateUTC
2013-12-13 00:00:00,69.1,60.8,29.94,South,173,1.0,1.0,75,0.00,,,0.00,0,Wunderground v.1.15,2013-12-13 10:00:00,
2013-12-13 00:30:00,69.8,61.1,29.93,ESE,122,1.0,4.0,74,0.00,,,0.00,0,Wunderground v.1.15,2013-12-13 10:30:00,
2013-12-13 01:00:00,69.6,60.2,29.93,ESE,120,1.0,1.0,72,0.00,,,0.00,0,Wunderground v.1.15,2013-12-13 11:00:00,
2013-12-13 01:30:00,69.4,60.0,29.92,ESE,119,1.0,1.0,72,0.00,,,0.00,0,Wunderground v.1.15,2013-12-13 11:30:00,
2013-12-13 02:00:00,69.1,59.7,29.92,ESE,119,1.0,3.0,72,0.00,,,0.00,0,Wunderground v.1.15,2013-12-13 12:00:00,
2013-12-13 02:30:00,68.4,59.0,29.91,ESE,120,2.0,2.0,72,0.00,,,0.00,0,Wunderground v.1.15,2013-12-13 12:30:00,
2013-12-13 03:00:00,67.8,58.4,29.90,SE,138,3.0,3.0,72,0.00,,,0.00,0,Wunderground v.1.15,2013-12-13 13:00:00,
2013-12-13 03:30:00,66.9,58.0,29.89,SE,140,2.0,3.0,73,0.00,,,0.00,0,Wunderground v.1.15,2013-12-13 13:30:00,
2013-12-13 04:00:00,66.4,57.1,29.90,SE,128,4.0,4.0,72,0.00,,,0.00,0,Wunderground v.1.15,2013-12-13 14:00:00,
2013-12-13 04:30:00,66.4,56.7,29.90,SE,128,4.0,5.0,71,0.00,,,0.00,0,Wunderground v.1.15,2013-12-13 14:30:00,
2013-12-13 05:00:00,66.4,56.3,29.91,SE,131,3.0,3.0,70,0.00,,,0.00,0,Wunderground v.1.15,2013-12-13 15:00:00,
2013-12-13 05:30:00,66.1,56.4,29.91,ESE,120,3.0,3.0,71,0.00,,,0.00,0,Wunderground v.1.15,2013-12-13 15:30:00,
2013-12-13 06:00:00,66.3,56.2,29.91,ESE,104,1.0,1.0,70,0.00,,,0.00,0,Wunderground v.1.15,2013-12-13 16:00:00,
2013-12-13 06:30:00,66.3,56.2,29.91,ESE,104,1.0,3.0,70,0.00,,,0.00,0,Wunderground v.1.15,2013-12-13 16:30:00,
2013-12-13 07:00:00,67.3,55.5,29.91,East,80,4.0,7.0,66,0.00,,,0.00,7,Wunderground v.1.15,2013-12-13 17:00:00,
2013-12-13 07:30:00,68.9,58.7,29.92,ENE,76,6.0,6.0,70,0.00,,,0.00,56,Wunderground v.1.15,2013-12-13 17:30:00,
2013-12-13 08:00:00,69.4,59.2,29.93,ESE,105,7.0,7.0,70,0.00,,,0.00,123,Wunderground v.1.15,2013-12-13 18:00:00,
2013-12-13 08:30:00,71.6,59.6,29.94,East,88,5.0,7.0,66,0.00,,,0.00,204,Wunderground v.1.15,2013-12-13 18:30:00,
2013-12-13 09:00:00,74.2,59.4,29.94,ENE,74,7.0,7.0,60,0.00,,,0.00,262,Wunderground v.1.15,2013-12-13 19:00:00,
2013-12-13 09:30:00,74.9,60.5,29.93,ESE,121,7.0,7.0,61,0.00,,,0.00,315,Wunderground v.1.15,2013-12-13 19:30:00,
2013-12-13 10:00:00,77.7,60.8,29.93,ENE,67,5.0,5.0,56,0.00,,,0.00,613,Wunderground v.1.15,2013-12-13 20:00:00,
2013-12-13 10:30:00,80.9,56.9,29.93,NE,34,0.0,0.0,44,0.00,,,0.00,638,Wunderground v.1.15,2013-12-13 20:30:00,
2013-12-13 11:00:00,77.7,62.2,29.93,NW,307,5.0,7.0,59,0.00,,,0.00,545,Wunderground v.1.15,2013-12-13 21:00:00,
2013-12-13 11:30:00,77.6,60.7,29.93,NNW,328,5.0,5.0,56,0.00,,,0.00,557,Wunderground v.1.15,2013-12-13 21:30:00,
2013-12-13 12:00:00,78.6,64.9,29.92,NNW,331,3.0,5.0,63,0.00,,,0.00,708,Wunderground v.1.15,2013-12-13 22:00:00,
2013-12-13 12:30:00,78.5,66.6,29.90,WSW,239,4.0,10.0,67,0.00,,,0.00,759,Wunderground v.1.15,2013-12-13 22:30:00,
2013-12-13 13:00:00,78.3,66.4,29.88,NW,309,4.0,4.0,67,0.00,,,0.00,719,Wunderground v.1.15,2013-12-13 23:00:00,
2013-12-13 13:30:00,78.6,64.5,29.87,WNW,302,2.0,2.0,62,0.00,,,0.00,397,Wunderground v.1.15,2013-12-13 23:30:00,
2013-12-13 14:00:00,78.1,64.9,29.86,NNW,336,3.0,4.0,64,0.00,,,0.00,348,Wunderground v.1.15,2013-12-14 00:00:00,
2013-12-13 14:30:00,79.8,65.2,29.84,NW,319,3.0,3.0,61,0.00,,,0.00,557,Wunderground v.1.15,2013-12-14 00:30:00,
2013-12-13 15:00:00,79.2,66.0,29.84,West,265,3.0,3.0,64,0.00,,,0.00,237,Wunderground v.1.15,2013-12-14 01:00:00,
2013-12-13 15:30:00,77.4,66.8,29.85,WNW,291,3.0,4.0,70,0.00,,,0.00,304,Wunderground v.1.15,2013-12-14 01:30:00,
2013-12-13 16:00:00,76.1,66.4,29.85,NW,314,3.0,9.0,72,0.00,,,0.00,250,Wunderground v.1.15,2013-12-14 02:00:00,
2013-12-13 16:30:00,75.3,66.8,29.86,WNW,294,5.0,5.0,75,0.00,,,0.00,102,Wunderground v.1.15,2013-12-14 02:30:00,
2013-12-13 17:00:00,74.9,66.4,29.87,WNW,296,2.0,2.0,75,0.00,,,0.00,51,Wunderground v.1.15,2013-12-14 03:00:00,
2013-12-13 17:30:00,74.2,66.1,29.87,WNW,297,1.0,2.0,76,0.00,,,0.00,16,Wunderground v.1.15,2013-12-14 03:30:00,
2013-12-13 18:00:00,73.7,66.4,29.88,WNW,297,0.0,2.0,78,0.00,,,0.00,0,Wunderground v.1.15,2013-12-14 04:00:00,
2013-12-13 18:30:00,73.5,66.6,29.89,WNW,297,0.0,0.0,79,0.00,,,0.00,0,Wunderground v.1.15,2013-12-14 04:30:00,
2013-12-13 19:00:00,73.3,66.4,29.91,WNW,297,0.0,0.0,79,0.00,,,0.00,0,Wunderground v.1.15,2013-12-14 05:00:00,
2013-12-13 19:30:00,73.0,66.5,29.91,WNW,297,0.0,0.0,80,0.00,,,0.00,0,Wunderground v.1.15,2013-12-14 05:30:00,
2013-12-13 20:00:00,72.7,66.5,29.92,WNW,297,0.0,0.0,81,0.00,,,0.00,0,Wunderground v.1.15,2013-12-14 06:00:00,
2013-12-13 20:30:00,72.0,65.8,29.91,WNW,297,0.0,0.0,81,0.00,,,0.00,0,Wunderground v.1.15,2013-12-14 06:30:00,
2013-12-13 21:00:00,70.8,64.0,29.92,WNW,297,0.0,0.0,79,0.00,,,0.00,0,Wunderground v.1.15,2013-12-14 07:00:00,
2013-12-13 21:30:00,69.6,62.4,29.92,WNW,296,1.0,1.0,78,0.00,,,0.00,0,Wunderground v.1.15,2013-12-14 07:30:00,
2013-12-13 22:00:00,68.9,62.1,29.92,WNW,297,0.0,0.0,79,0.00,,,0.00,0,Wunderground v.1.15,2013-12-14 08:00:00,
2013-12-13 22:30:00,69.4,62.2,29.92,NNE,23,0.0,0.0,78,0.00,,,0.00,0,Wunderground v.1.15,2013-12-14 08:30:00,
2013-12-13 23:00:00,70.6,60.7,29.91,ESE,111,2.0,2.0,71,0.00,,,0.00,0,Wunderground v.1.15,2013-12-14 09:00:00,
2013-12-13 23:30:00,70.6,60.3,29.90,ESE,105,4.0,5.0,70,0.00,,,0.00,0,Wunderground v.1.15,2013-12-14 09:30:00,